Time;durP1;ratioP1;P1;durP2;ratioP2;P2;SDS_P1;SDS_P2;PMS_P1;PMS_P2;Temp;Humidity;BMP_temperature;BMP_pressure;BME280_temperature;BME280_humidity;BME280_pressure;Samples;Min_cycle;Max_cycle;Signal;HPM_P1;HPM_P2
2022/03/15 00:00:55;;;;;;;15.73;10.10;;;4.60;99.90;;;;;;5020195;28;20179;-77
2022/03/15 00:03:22;;;;;;;14.37;10.43;;;4.60;99.90;;;;;;5020206;28;20182;-76
2022/03/15 00:05:47;;;;;;;16.33;10.57;;;4.70;99.90;;;;;;5019667;28;20226;-76
2022/03/15 00:08:13;;;;;;;16.03;10.13;;;4.60;99.90;;;;;;5020445;28;20237;-77
2022/03/15 00:10:39;;;;;;;16.73;10.13;;;4.50;99.90;;;;;;5020416;28;20190;-77
2022/03/15 00:13:06;;;;;;;13.93;10.83;;;4.50;99.90;;;;;;5020546;28;20210;-77
2022/03/15 00:15:32;;;;;;;14.10;9.87;;;4.40;99.90;;;;;;5020060;28;20285;-78
2022/03/15 00:17:59;;;;;;;14.93;10.30;;;4.40;99.90;;;;;;5019949;28;20270;-77
2022/03/15 00:20:25;;;;;;;12.63;9.97;;;4.40;99.90;;;;;;5037400;28;20175;-77
2022/03/15 00:22:55;;;;;;;15.10;9.50;;;4.40;99.90;;;;;;5037876;28;20656;-77
2022/03/15 00:25:21;;;;;;;12.57;9.83;;;4.30;99.90;;;;;;5019684;28;20191;-77
2022/03/15 00:27:50;;;;;;;11.87;9.67;;;4.20;99.90;;;;;;5019758;28;20190;-77
2022/03/15 00:30:16;;;;;;;14.53;10.20;;;4.20;99.90;;;;;;5019588;28;20179;-77
2022/03/15 00:32:42;;;;;;;13.70;9.47;;;4.10;99.90;;;;;;5019516;28;20217;-77
2022/03/15 00:35:16;;;;;;;11.57;9.20;;;4.10;99.90;;;;;;5019381;28;20206;-77
2022/03/15 00:37:42;;;;;;;14.90;9.30;;;4.00;99.90;;;;;;5019965;28;20171;-78
2022/03/15 00:40:09;;;;;;;11.77;9.10;;;4.00;99.90;;;;;;5025980;28;20197;-78
2022/03/15 00:42:34;;;;;;;12.63;8.77;;;4.00;99.90;;;;;;5044346;28;20237;-79
2022/03/15 00:45:02;;;;;;;15.13;9.20;;;3.90;99.90;;;;;;5025734;28;20661;-80
2022/03/15 00:47:29;;;;;;;14.10;10.23;;;3.90;99.90;;;;;;5023347;28;20252;-76
2022/03/15 00:49:55;;;;;;;13.97;9.70;;;4.00;99.90;;;;;;5035720;28;20187;-76
2022/03/15 00:52:20;;;;;;;13.57;10.07;;;3.90;99.90;;;;;;5019453;28;20650;-76
2022/03/15 00:54:46;;;;;;;12.13;9.87;;;3.90;99.90;;;;;;5037103;28;20705;-77
2022/03/15 00:57:12;;;;;;;20.77;11.40;;;3.90;99.90;;;;;;5021085;28;20233;-76
2022/03/15 00:59:38;;;;;;;15.83;10.13;;;3.90;99.90;;;;;;5020060;28;20183;-75
2022/03/15 01:02:03;;;;;;;11.73;9.53;;;4.00;99.90;;;;;;5019515;28;20618;-76
2022/03/15 01:04:29;;;;;;;15.47;10.40;;;4.10;99.90;;;;;;5018849;28;20184;-76
2022/03/15 01:06:55;;;;;;;11.83;9.30;;;4.10;99.90;;;;;;5019519;28;20191;-76
2022/03/15 01:09:21;;;;;;;16.30;10.67;;;4.20;99.90;;;;;;5035859;28;20194;-76
2022/03/15 01:11:46;;;;;;;14.87;10.63;;;4.20;99.90;;;;;;5019167;28;20183;-76
2022/03/15 01:14:12;;;;;;;13.70;10.07;;;4.30;99.90;;;;;;5036999;28;20202;-76
2022/03/15 01:16:38;;;;;;;13.87;10.07;;;4.20;99.90;;;;;;5019505;28;20207;-76
2022/03/15 01:19:07;;;;;;;13.60;10.90;;;4.10;99.90;;;;;;5035960;28;20668;-76
2022/03/15 01:21:35;;;;;;;15.90;10.67;;;4.10;99.90;;;;;;5019063;28;20186;-76
2022/03/15 01:24:01;;;;;;;15.10;10.30;;;4.00;99.90;;;;;;5036580;28;20175;-76
2022/03/15 01:26:26;;;;;;;13.70;10.83;;;4.00;99.90;;;;;;5037507;28;20542;-78
2022/03/15 01:28:53;;;;;;;14.57;11.10;;;3.90;99.90;;;;;;5020083;28;20182;-78
2022/03/15 01:31:18;;;;;;;15.70;10.93;;;3.80;99.90;;;;;;5020636;28;20208;-78
2022/03/15 01:33:44;;;;;;;14.70;10.90;;;3.80;99.90;;;;;;5020570;28;20202;-78
2022/03/15 01:36:10;;;;;;;15.33;11.17;;;3.70;99.90;;;;;;5020127;28;20695;-77
2022/03/15 01:38:36;;;;;;;16.53;11.53;;;3.70;99.90;;;;;;5020139;28;20580;-77
2022/03/15 01:41:01;;;;;;;14.80;11.67;;;3.70;99.90;;;;;;5019496;28;20198;-77
2022/03/15 01:43:27;;;;;;;16.27;10.70;;;3.70;99.90;;;;;;5021857;28;20221;-77
2022/03/15 01:45:56;;;;;;;16.33;11.20;;;3.60;99.90;;;;;;5022947;28;20199;-77
2022/03/15 01:48:21;;;;;;;14.90;11.33;;;3.60;99.90;;;;;;5035729;28;20182;-76
2022/03/15 01:50:47;;;;;;;17.50;11.17;;;3.70;99.90;;;;;;5036171;28;20221;-75
2022/03/15 01:53:18;;;;;;;15.63;11.13;;;3.70;99.90;;;;;;5036155;28;20278;-75
2022/03/15 01:55:45;;;;;;;15.33;11.87;;;3.70;99.90;;;;;;5017998;28;20195;-75
2022/03/15 01:58:10;;;;;;;15.23;12.00;;;3.80;99.90;;;;;;5035699;28;20692;-75
2022/03/15 02:00:37;;;;;;;17.57;11.90;;;3.80;99.90;;;;;;5035732;28;20202;-75
2022/03/15 02:03:03;;;;;;;14.03;11.50;;;3.90;99.90;;;;;;5018107;28;20559;-76
2022/03/15 02:05:30;;;;;;;17.03;12.13;;;3.80;99.90;;;;;;5017817;28;20226;-77
2022/03/15 02:07:56;;;;;;;16.27;12.10;;;3.80;99.90;;;;;;5017916;28;20183;-76
2022/03/15 02:10:22;;;;;;;19.67;12.80;;;3.70;99.90;;;;;;5017850;28;20178;-77
2022/03/15 02:12:48;;;;;;;18.40;12.07;;;3.70;99.90;;;;;;5018148;28;20190;-77
2022/03/15 02:15:14;;;;;;;16.10;11.57;;;3.60;99.90;;;;;;5017942;28;20202;-78
2022/03/15 02:17:39;;;;;;;18.83;12.63;;;3.70;99.90;;;;;;5034767;28;20171;-77
2022/03/15 02:20:09;;;;;;;14.90;11.60;;;3.70;99.90;;;;;;5017789;28;20733;-77
2022/03/15 02:22:35;;;;;;;19.73;12.70;;;3.80;99.90;;;;;;5018683;28;20591;-77
2022/03/15 02:25:02;;;;;;;19.53;12.37;;;3.80;99.90;;;;;;5017326;28;20265;-76
2022/03/15 02:27:28;;;;;;;19.93;12.40;;;3.80;99.90;;;;;;5017356;28;20248;-76
2022/03/15 02:29:54;;;;;;;15.03;11.90;;;3.80;99.90;;;;;;5035165;28;20183;-76
2022/03/15 02:32:20;;;;;;;15.07;11.57;;;3.70;99.90;;;;;;5035687;28;20175;-76
2022/03/15 02:34:46;;;;;;;16.63;12.17;;;3.70;99.90;;;;;;5017337;28;20210;-77
2022/03/15 02:37:12;;;;;;;16.43;12.67;;;3.80;99.90;;;;;;5033899;28;20176;-76
2022/03/15 02:39:37;;;;;;;18.13;12.60;;;3.90;99.90;;;;;;5017382;28;20175;-76
2022/03/15 02:42:03;;;;;;;15.63;12.30;;;3.80;99.90;;;;;;5017354;28;20229;-76
2022/03/15 02:44:29;;;;;;;19.30;12.03;;;3.70;99.90;;;;;;5017306;28;20179;-77
2022/03/15 02:46:54;;;;;;;16.83;10.67;;;3.60;99.90;;;;;;5035129;28;20190;-76
2022/03/15 02:49:20;;;;;;;15.63;10.30;;;3.50;99.90;;;;;;5033689;28;20186;-76
2022/03/15 02:51:46;;;;;;;16.73;11.30;;;3.50;99.90;;;;;;5033854;28;20187;-77
2022/03/15 02:54:13;;;;;;;17.00;11.60;;;3.40;99.90;;;;;;5017114;28;20203;-77
2022/03/15 02:56:43;;;;;;;15.97;12.10;;;3.30;99.90;;;;;;5017081;28;20201;-77
2022/03/15 02:59:10;;;;;;;16.80;11.40;;;3.30;99.90;;;;;;5017107;28;20269;-77
2022/03/15 03:01:36;;;;;;;18.20;11.90;;;3.30;99.90;;;;;;5016998;28;20218;-77
2022/03/15 03:04:01;;;;;;;13.27;11.33;;;3.30;99.90;;;;;;5016948;28;20195;-76
2022/03/15 03:06:27;;;;;;;14.20;11.97;;;3.30;99.90;;;;;;5017598;28;20218;-77
2022/03/15 03:08:53;;;;;;;14.40;11.57;;;3.30;99.90;;;;;;5034721;28;20173;-77
2022/03/15 03:11:19;;;;;;;16.20;12.50;;;3.40;99.90;;;;;;5016784;28;20210;-77
2022/03/15 03:13:47;;;;;;;19.43;12.33;;;3.40;99.90;;;;;;5033320;28;20199;-77
2022/03/15 03:16:13;;;;;;;15.87;12.27;;;3.50;99.90;;;;;;5016804;28;20199;-76
2022/03/15 03:18:40;;;;;;;15.93;12.53;;;3.50;99.90;;;;;;5016994;28;20206;-76
2022/03/15 03:21:06;;;;;;;16.43;11.63;;;3.60;99.90;;;;;;5016630;28;20181;-76
2022/03/15 03:23:35;;;;;;;14.87;12.77;;;3.60;99.90;;;;;;5034404;28;20186;-76
2022/03/15 03:26:01;;;;;;;18.13;11.97;;;3.60;99.90;;;;;;5034140;28;20201;-77
2022/03/15 03:28:33;;;;;;;16.57;12.00;;;3.60;99.90;;;;;;5034135;28;20179;-76
2022/03/15 03:31:00;;;;;;;19.27;13.00;;;3.70;99.90;;;;;;5016624;28;20175;-76
2022/03/15 03:33:26;;;;;;;19.93;13.00;;;3.70;99.90;;;;;;5035428;28;20203;-76
2022/03/15 03:35:52;;;;;;;15.93;12.47;;;3.70;99.90;;;;;;5017099;28;20203;-77
2022/03/15 03:38:18;;;;;;;20.90;13.27;;;3.60;99.90;;;;;;5034666;28;20238;-77
2022/03/15 03:40:44;;;;;;;15.30;12.07;;;3.70;99.90;;;;;;5017019;28;20272;-77
2022/03/15 03:43:10;;;;;;;18.03;12.43;;;3.70;99.90;;;;;;5032871;28;20185;-77
2022/03/15 03:45:36;;;;;;;15.03;11.87;;;3.80;99.90;;;;;;5016199;28;20203;-76
2022/03/15 03:48:03;;;;;;;15.97;12.50;;;3.70;99.90;;;;;;5035095;28;20179;-77
2022/03/15 03:50:28;;;;;;;18.20;13.57;;;3.70;99.90;;;;;;5017726;28;20183;-77
2022/03/15 03:52:54;;;;;;;18.87;13.50;;;3.80;99.90;;;;;;5017697;28;20642;-76
2022/03/15 03:55:20;;;;;;;21.90;13.03;;;3.80;99.90;;;;;;5016166;28;20203;-77
2022/03/15 03:57:45;;;;;;;22.97;13.23;;;3.70;99.90;;;;;;5033978;28;20175;-76
2022/03/15 04:00:11;;;;;;;27.30;14.47;;;3.80;99.90;;;;;;5016388;28;20175;-77
2022/03/15 04:02:37;;;;;;;18.20;13.80;;;3.80;99.90;;;;;;5016290;28;20183;-77
2022/03/15 04:05:03;;;;;;;19.40;13.13;;;3.80;99.90;;;;;;5016019;28;20245;-78
2022/03/15 04:07:29;;;;;;;18.87;13.40;;;3.80;99.90;;;;;;5016251;28;20187;-77
2022/03/15 04:09:55;;;;;;;17.80;12.80;;;3.60;99.90;;;;;;5032683;28;20565;-76
2022/03/15 04:12:23;;;;;;;21.07;13.30;;;3.60;99.90;;;;;;5016075;28;20302;-76
2022/03/15 04:14:49;;;;;;;17.27;12.57;;;3.60;99.90;;;;;;5015812;28;20215;-77
2022/03/15 04:17:15;;;;;;;23.23;13.87;;;3.50;99.90;;;;;;5032358;28;20186;-76
2022/03/15 04:19:41;;;;;;;21.17;12.67;;;3.50;99.90;;;;;;5015929;28;20233;-75
2022/03/15 04:22:07;;;;;;;19.00;13.80;;;3.50;99.90;;;;;;5016169;28;20186;-74
2022/03/15 04:24:33;;;;;;;15.43;12.23;;;3.40;99.90;;;;;;5033793;28;20175;-75
2022/03/15 04:26:59;;;;;;;15.43;12.07;;;3.40;99.90;;;;;;5033601;28;20221;-75
2022/03/15 04:29:28;;;;;;;17.07;12.63;;;3.40;99.90;;;;;;5015918;28;20196;-74
2022/03/15 04:31:54;;;;;;;18.00;13.00;;;3.40;99.90;;;;;;5033662;28;20691;-75
2022/03/15 04:34:20;;;;;;;18.20;11.73;;;3.40;99.90;;;;;;5033467;28;20230;-74
2022/03/15 04:36:46;;;;;;;19.70;13.27;;;3.40;99.90;;;;;;5015863;28;20238;-74
2022/03/15 04:39:12;;;;;;;16.13;12.60;;;3.40;99.90;;;;;;5016010;28;20179;-76
2022/03/15 04:41:39;;;;;;;19.23;13.33;;;3.40;99.90;;;;;;5037918;28;20171;-76
2022/03/15 04:44:08;;;;;;;18.17;12.63;;;3.40;99.90;;;;;;5019691;28;20197;-77
2022/03/15 04:46:34;;;;;;;18.67;13.27;;;3.40;99.90;;;;;;5020753;28;20203;-77
2022/03/15 04:49:00;;;;;;;17.97;13.33;;;3.50;99.90;;;;;;5020201;28;20183;-77
2022/03/15 04:51:26;;;;;;;23.50;14.27;;;3.50;99.90;;;;;;5024449;28;20190;-77
2022/03/15 04:53:53;;;;;;;21.17;13.73;;;3.50;99.90;;;;;;5043248;28;20207;-77
2022/03/15 04:56:19;;;;;;;19.37;14.40;;;3.40;99.90;;;;;;5037431;28;20778;-77
2022/03/15 04:58:45;;;;;;;18.10;13.20;;;3.40;99.90;;;;;;5020158;28;20562;-76
2022/03/15 05:01:11;;;;;;;22.90;13.33;;;3.50;99.90;;;;;;5036614;28;20183;-76
2022/03/15 05:03:37;;;;;;;18.63;12.83;;;3.50;99.90;;;;;;5035861;28;20191;-76
2022/03/15 05:06:03;;;;;;;19.93;12.93;;;3.50;99.90;;;;;;5036635;28;20590;-76
2022/03/15 05:08:30;;;;;;;17.13;12.77;;;3.50;99.90;;;;;;5038713;28;20179;-78
2022/03/15 05:11:08;;;;;;;20.60;13.00;;;3.50;99.90;;;;;;5021421;28;20183;-78
2022/03/15 05:13:47;;;;;;;17.30;12.13;;;3.50;99.90;;;;;;5021293;28;20226;-78
2022/03/15 05:16:18;;;;;;;16.67;12.70;;;3.40;99.90;;;;;;5029834;28;20230;-78
2022/03/15 05:18:46;;;;;;;17.50;12.60;;;3.50;99.90;;;;;;5037693;28;20171;-78
2022/03/15 05:21:16;;;;;;;21.07;12.23;;;3.50;99.90;;;;;;5019548;28;20186;-77
2022/03/15 05:23:43;;;;;;;16.07;11.47;;;3.50;99.90;;;;;;5036658;28;20160;-77
2022/03/15 05:26:09;;;;;;;17.57;11.40;;;3.40;99.90;;;;;;5036385;28;20274;-77
2022/03/15 05:28:35;;;;;;;16.47;11.57;;;3.30;99.90;;;;;;5018746;28;20186;-77
2022/03/15 05:31:01;;;;;;;19.00;12.43;;;3.30;99.90;;;;;;5018896;28;20183;-77
2022/03/15 05:33:30;;;;;;;16.03;12.23;;;3.30;99.90;;;;;;5018639;28;20207;-77
2022/03/15 05:35:56;;;;;;;15.10;11.73;;;3.30;99.90;;;;;;5040088;28;20190;-78
2022/03/15 05:38:22;;;;;;;17.30;12.37;;;3.30;99.90;;;;;;5019237;28;20183;-79
2022/03/15 05:40:48;;;;;;;18.73;12.40;;;3.30;99.90;;;;;;5018915;28;20233;-79
2022/03/15 05:43:14;;;;;;;14.27;11.10;;;3.40;99.90;;;;;;5019536;28;20541;-78
2022/03/15 05:45:40;;;;;;;17.30;11.83;;;3.40;99.90;;;;;;5019154;28;20213;-77
2022/03/15 05:48:06;;;;;;;16.80;12.63;;;3.40;99.90;;;;;;5018129;28;20187;-76
2022/03/15 05:50:32;;;;;;;16.70;12.27;;;3.40;99.90;;;;;;5035489;28;20205;-76
2022/03/15 05:53:03;;;;;;;15.93;12.20;;;3.40;99.90;;;;;;5017486;28;20213;-76
2022/03/15 05:55:30;;;;;;;17.43;11.80;;;3.40;99.90;;;;;;5036585;28;20253;-80
2022/03/15 05:57:56;;;;;;;17.33;11.80;;;3.40;99.90;;;;;;5024360;28;20179;-81
2022/03/15 06:00:22;;;;;;;17.37;12.60;;;3.50;99.90;;;;;;5022602;28;20186;-79
2022/03/15 06:02:48;;;;;;;19.50;12.97;;;3.50;99.90;;;;;;5037949;28;20190;-79
2022/03/15 06:05:14;;;;;;;21.10;13.17;;;3.60;99.90;;;;;;5020602;28;20219;-79
2022/03/15 06:07:44;;;;;;;19.13;13.37;;;3.60;99.90;;;;;;5037862;28;20705;-80
2022/03/15 06:10:10;;;;;;;20.83;14.50;;;3.70;99.90;;;;;;5020936;28;20787;-80
2022/03/15 06:12:36;;;;;;;20.60;15.23;;;3.70;99.90;;;;;;5037715;28;20179;-81
2022/03/15 06:15:01;;;;;;;22.07;15.23;;;3.80;99.90;;;;;;5019999;28;20264;-82
2022/03/15 06:17:27;;;;;;;28.80;14.83;;;3.80;99.90;;;;;;5020261;28;20244;-79
2022/03/15 06:19:53;;;;;;;22.20;14.53;;;3.90;99.90;;;;;;5036699;28;20191;-81
2022/03/15 06:22:18;;;;;;;20.40;14.57;;;3.90;99.90;;;;;;5037304;28;20657;-80
2022/03/15 06:24:44;;;;;;;21.87;15.03;;;3.90;99.90;;;;;;5037920;28;20210;-79
2022/03/15 06:27:10;;;;;;;18.83;14.63;;;3.90;99.90;;;;;;5035115;28;20183;-80
2022/03/15 06:29:35;;;;;;;24.23;17.70;;;3.90;99.90;;;;;;5036582;28;20262;-79
2022/03/15 06:32:01;;;;;;;22.40;17.27;;;3.90;99.90;;;;;;5036559;28;20249;-79
2022/03/15 06:34:27;;;;;;;26.13;18.00;;;4.00;99.90;;;;;;5035955;28;20195;-79
2022/03/15 06:36:52;;;;;;;23.70;16.87;;;4.00;99.90;;;;;;5036177;28;20183;-79
2022/03/15 06:39:18;;;;;;;23.87;16.27;;;4.10;99.90;;;;;;5034512;28;20187;-78
2022/03/15 06:41:44;;;;;;;24.93;16.87;;;4.10;99.90;;;;;;5017696;28;20179;-78
2022/03/15 06:44:10;;;;;;;24.27;15.10;;;4.10;99.90;;;;;;5035324;28;20183;-78
2022/03/15 06:46:36;;;;;;;21.60;16.33;;;4.20;99.90;;;;;;5017227;28;20203;-78
2022/03/15 06:49:02;;;;;;;21.00;16.57;;;4.20;99.90;;;;;;5017302;28;20232;-79
2022/03/15 06:51:28;;;;;;;22.53;14.80;;;4.30;99.90;;;;;;5035067;28;20725;-79
2022/03/15 06:53:54;;;;;;;24.27;16.13;;;4.40;99.90;;;;;;5036233;28;20386;-79
2022/03/15 06:56:20;;;;;;;23.13;16.03;;;4.40;99.90;;;;;;5034705;28;20195;-79
2022/03/15 06:58:46;;;;;;;27.20;15.63;;;4.50;99.90;;;;;;5017850;28;20175;-81
2022/03/15 07:01:12;;;;;;;22.63;15.53;;;4.50;99.90;;;;;;5017423;28;20171;-78
2022/03/15 07:03:38;;;;;;;23.07;14.73;;;4.50;99.90;;;;;;5035162;28;20168;-78
2022/03/15 07:06:03;;;;;;;21.73;16.37;;;4.60;99.90;;;;;;5034180;28;20222;-75
2022/03/15 07:08:30;;;;;;;24.60;16.20;;;4.60;99.90;;;;;;5035071;28;20641;-78
2022/03/15 07:10:56;;;;;;;25.10;15.87;;;4.70;99.90;;;;;;5033998;28;20268;-78
2022/03/15 07:13:21;;;;;;;26.33;16.87;;;4.80;99.90;;;;;;5034461;28;20285;-78
2022/03/15 07:15:47;;;;;;;23.93;15.57;;;4.80;99.90;;;;;;5034357;28;20191;-78
2022/03/15 07:18:15;;;;;;;23.03;14.93;;;4.90;99.90;;;;;;5034211;28;20288;-78
2022/03/15 07:20:41;;;;;;;23.03;15.80;;;4.90;99.90;;;;;;5034021;28;20175;-78
2022/03/15 07:23:07;;;;;;;21.00;15.50;;;5.00;99.90;;;;;;5033971;28;20760;-77
2022/03/15 07:25:33;;;;;;;19.30;15.07;;;5.00;99.90;;;;;;5033949;28;20223;-77
2022/03/15 07:27:58;;;;;;;19.87;14.23;;;5.10;99.90;;;;;;5033865;28;20182;-77
2022/03/15 07:30:24;;;;;;;19.23;14.57;;;5.20;99.90;;;;;;5032692;28;20187;-77
2022/03/15 07:32:50;;;;;;;21.87;14.33;;;5.20;99.90;;;;;;5033969;28;20179;-78
2022/03/15 07:35:16;;;;;;;18.50;14.27;;;5.30;99.90;;;;;;5032400;28;20225;-77
2022/03/15 07:37:53;;;;;;;22.73;15.13;;;5.40;99.90;;;;;;5033849;28;20229;-77
2022/03/15 07:40:19;;;;;;;17.97;13.60;;;5.40;99.90;;;;;;5034025;28;20225;-77
2022/03/15 07:42:46;;;;;;;22.13;13.60;;;5.50;99.90;;;;;;5016382;28;20641;-78
2022/03/15 07:45:11;;;;;;;23.53;14.80;;;5.60;99.90;;;;;;5016065;28;20261;-78
2022/03/15 07:47:37;;;;;;;21.50;14.73;;;5.70;99.90;;;;;;5016361;28;20186;-77
2022/03/15 07:50:03;;;;;;;21.43;14.27;;;5.70;99.90;;;;;;5033703;28;20186;-77
2022/03/15 07:52:29;;;;;;;20.87;14.33;;;5.80;99.90;;;;;;5033719;28;20190;-77
2022/03/15 07:54:55;;;;;;;25.00;13.97;;;5.90;99.90;;;;;;5032343;28;20227;-77
2022/03/15 07:57:20;;;;;;;16.80;13.10;;;5.90;99.90;;;;;;5032360;28;20529;-77
2022/03/15 07:59:46;;;;;;;19.07;13.93;;;6.00;99.90;;;;;;5033691;28;20526;-77
2022/03/15 08:02:14;;;;;;;19.97;13.63;;;6.10;99.90;;;;;;5033821;28;20660;-77
2022/03/15 08:04:40;;;;;;;19.10;12.77;;;6.20;99.90;;;;;;5032457;28;20671;-77
2022/03/15 08:07:06;;;;;;;16.33;11.80;;;6.20;99.90;;;;;;5034301;28;20171;-77
2022/03/15 08:09:31;;;;;;;22.13;14.37;;;6.20;99.90;;;;;;5034433;28;20182;-77
2022/03/15 08:11:57;;;;;;;20.83;14.47;;;6.30;99.90;;;;;;5034158;28;20175;-77
2022/03/15 08:14:23;;;;;;;18.57;12.33;;;6.40;99.90;;;;;;5037380;28;20233;-77
2022/03/15 08:16:48;;;;;;;24.13;13.93;;;6.40;99.90;;;;;;5055468;28;20195;-77
2022/03/15 08:19:14;;;;;;;24.30;14.83;;;6.50;99.90;;;;;;5039430;28;20168;-77
2022/03/15 08:21:40;;;;;;;22.10;14.50;;;6.50;99.90;;;;;;5040417;28;20178;-77
2022/03/15 08:24:06;;;;;;;21.00;13.77;;;6.60;99.90;;;;;;5038348;28;20257;-77
2022/03/15 08:26:31;;;;;;;21.50;14.30;;;6.70;99.90;;;;;;5037731;28;20282;-77
2022/03/15 08:28:57;;;;;;;22.03;13.73;;;6.80;99.90;;;;;;5037323;28;20609;-77
2022/03/15 08:31:23;;;;;;;18.53;14.47;;;6.90;99.90;;;;;;5019699;28;20179;-77
2022/03/15 08:33:48;;;;;;;21.50;12.57;;;7.00;99.90;;;;;;5037664;28;20214;-77
2022/03/15 08:36:14;;;;;;;20.60;13.90;;;7.10;99.90;;;;;;5035892;28;20223;-77
2022/03/15 08:38:41;;;;;;;21.97;13.03;;;7.30;99.90;;;;;;5037300;28;20211;-77
2022/03/15 08:41:08;;;;;;;17.90;12.27;;;7.30;99.90;;;;;;5019315;28;20186;-78
2022/03/15 08:43:33;;;;;;;22.07;13.23;;;7.40;99.90;;;;;;5020906;28;20664;-78
2022/03/15 08:45:59;;;;;;;19.47;12.13;;;7.50;99.90;;;;;;5041497;28;20203;-78
2022/03/15 08:48:25;;;;;;;17.27;13.07;;;7.60;99.90;;;;;;5040866;28;20261;-77
2022/03/15 08:50:51;;;;;;;21.30;12.87;;;7.60;99.90;;;;;;5019614;28;20179;-77
2022/03/15 08:53:17;;;;;;;17.27;11.77;;;7.70;99.90;;;;;;5036308;28;20638;-79
2022/03/15 08:55:43;;;;;;;14.47;10.93;;;7.70;99.90;;;;;;5037520;28;20195;-78
2022/03/15 08:58:09;;;;;;;18.37;11.83;;;7.80;99.90;;;;;;5037796;28;20206;-78
2022/03/15 09:00:34;;;;;;;16.83;12.53;;;7.90;99.90;;;;;;5037254;28;20638;-78
2022/03/15 09:03:00;;;;;;;15.33;11.23;;;7.90;99.90;;;;;;5019501;28;20641;-77
2022/03/15 09:05:26;;;;;;;15.50;10.97;;;8.00;99.90;;;;;;5019357;28;20211;-79
2022/03/15 09:07:53;;;;;;;16.93;11.27;;;8.10;99.90;;;;;;5037369;28;20542;-78
2022/03/15 09:10:23;;;;;;;16.13;11.10;;;8.20;99.90;;;;;;5037346;28;20151;-78
2022/03/15 09:12:50;;;;;;;14.50;10.43;;;8.20;99.90;;;;;;5036246;28;20179;-78
2022/03/15 09:15:16;;;;;;;16.13;10.77;;;8.20;99.90;;;;;;5019902;28;20226;-79
2022/03/15 09:17:42;;;;;;;13.60;10.00;;;8.30;99.90;;;;;;5038862;28;20226;-80
2022/03/15 09:20:09;;;;;;;14.87;10.53;;;8.30;99.90;;;;;;5039258;28;20639;-80
2022/03/15 09:22:35;;;;;;;16.07;10.57;;;8.30;99.90;;;;;;5038691;28;20197;-79
2022/03/15 09:25:02;;;;;;;15.47;10.93;;;8.30;99.90;;;;;;5037886;28;20261;-79
2022/03/15 09:27:28;;;;;;;15.87;11.23;;;8.40;99.90;;;;;;5039294;28;20172;-79
2022/03/15 09:29:54;;;;;;;17.57;11.23;;;8.40;99.90;;;;;;5021484;28;20189;-79
2022/03/15 09:32:20;;;;;;;17.77;10.53;;;8.50;99.90;;;;;;5039988;28;20684;-79
2022/03/15 09:34:46;;;;;;;14.37;9.73;;;8.50;99.90;;;;;;5038194;28;20680;-79
2022/03/15 09:37:12;;;;;;;12.13;9.87;;;8.60;99.90;;;;;;5038711;28;20195;-78
2022/03/15 09:39:38;;;;;;;15.67;10.57;;;8.60;99.90;;;;;;5021241;28;20167;-79
2022/03/15 09:42:09;;;;;;;13.87;10.17;;;8.60;99.90;;;;;;5021514;28;20171;-79
2022/03/15 09:44:39;;;;;;;16.40;11.27;;;8.70;99.90;;;;;;5038180;28;20174;-79
2022/03/15 09:47:06;;;;;;;14.83;10.00;;;8.70;99.90;;;;;;5021130;28;20171;-79
2022/03/15 09:49:33;;;;;;;15.27;10.30;;;8.70;99.90;;;;;;5038374;28;20516;-79
2022/03/15 09:52:00;;;;;;;14.10;10.23;;;8.80;99.90;;;;;;5036733;28;20174;-79
2022/03/15 09:54:27;;;;;;;15.70;9.83;;;8.80;99.90;;;;;;5036246;28;20199;-79
2022/03/15 09:56:54;;;;;;;14.17;9.00;;;8.90;99.90;;;;;;5037055;28;20240;-79
2022/03/15 09:59:21;;;;;;;15.07;9.50;;;8.90;99.90;;;;;;5036415;28;20175;-79
2022/03/15 10:01:53;;;;;;;16.20;9.80;;;9.00;99.90;;;;;;5035239;28;20270;-79
2022/03/15 10:04:20;;;;;;;18.43;9.90;;;9.10;99.90;;;;;;5019340;28;20175;-79
2022/03/15 10:06:46;;;;;;;13.60;9.63;;;9.10;99.90;;;;;;5019198;28;20215;-79
2022/03/15 10:09:13;;;;;;;14.80;9.90;;;9.20;99.90;;;;;;5037403;28;20181;-79
2022/03/15 10:11:39;;;;;;;15.30;9.47;;;9.30;99.90;;;;;;5037086;28;20197;-79
2022/03/15 10:14:05;;;;;;;14.67;10.30;;;9.40;99.90;;;;;;5019557;28;20207;-79
2022/03/15 10:16:40;;;;;;;16.13;9.77;;;9.40;99.90;;;;;;5037256;28;20202;-79
2022/03/15 10:19:10;;;;;;;12.83;8.67;;;9.40;99.90;;;;;;5037010;28;20160;-79
2022/03/15 10:21:45;;;;;;;15.03;9.33;;;9.50;99.90;;;;;;5020504;28;20651;-79
2022/03/15 10:24:17;;;;;;;12.43;9.63;;;9.60;99.90;;;;;;5037759;28;20185;-79
2022/03/15 10:26:46;;;;;;;11.67;8.23;;;9.60;99.90;;;;;;5021079;28;20609;-79
2022/03/15 10:29:14;;;;;;;13.33;8.40;;;9.70;99.90;;;;;;5019454;28;20179;-77
2022/03/15 10:31:41;;;;;;;11.57;8.67;;;9.80;99.90;;;;;;5035073;28;20171;-77
2022/03/15 10:34:08;;;;;;;11.37;7.87;;;9.80;99.90;;;;;;5035809;28;20775;-78
2022/03/15 10:36:40;;;;;;;9.97;7.73;;;9.90;99.90;;;;;;5017592;28;20282;-78
2022/03/15 10:39:08;;;;;;;10.60;7.77;;;9.90;99.90;;;;;;5017938;28;20641;-78
2022/03/15 10:41:44;;;;;;;10.47;8.13;;;10.00;99.90;;;;;;5037745;28;20229;-78
2022/03/15 10:44:39;;;;;;;10.50;6.87;;;10.00;99.90;;;;;;5036194;28;20269;-78
2022/03/15 10:47:12;;;;;;;12.27;7.57;;;10.00;99.90;;;;;;5027094;28;20668;-78
2022/03/15 10:49:50;;;;;;;14.03;8.07;;;10.00;99.90;;;;;;5036415;28;20267;-78
2022/03/15 10:52:34;;;;;;;12.97;7.73;;;10.00;99.90;;;;;;5019265;28;20174;-78
2022/03/15 10:55:10;;;;;;;11.87;7.50;;;9.90;99.90;;;;;;5037805;28;20210;-78
2022/03/15 10:57:57;;;;;;;9.20;6.90;;;9.90;99.90;;;;;;5037340;28;20179;-83
2022/03/15 11:00:37;;;;;;;11.57;7.60;;;10.10;99.90;;;;;;5019991;28;20255;-82
2022/03/15 11:03:13;;;;;;;10.83;7.07;;;10.20;99.90;;;;;;5021841;28;20164;-82
2022/03/15 11:05:40;;;;;;;10.30;7.60;;;10.30;99.90;;;;;;5038936;28;20301;-82
2022/03/15 11:08:11;;;;;;;8.63;6.30;;;10.30;99.90;;;;;;5022526;28;20175;-82
2022/03/15 11:10:39;;;;;;;11.83;7.23;;;10.40;99.90;;;;;;5040704;28;20159;-82
2022/03/15 11:13:08;;;;;;;12.50;6.60;;;10.50;99.90;;;;;;5023697;28;20238;-82
2022/03/15 11:15:42;;;;;;;7.70;6.17;;;10.60;99.90;;;;;;5022260;28;20198;-81
2022/03/15 11:18:10;;;;;;;9.37;6.37;;;10.70;99.90;;;;;;5023033;28;20158;-82
2022/03/15 11:20:38;;;;;;;9.33;6.50;;;10.70;99.90;;;;;;5022936;28;20201;-82
2022/03/15 11:23:09;;;;;;;11.30;6.50;;;10.80;99.90;;;;;;5022147;28;20268;-82
2022/03/15 11:25:37;;;;;;;9.47;7.00;;;10.90;99.90;;;;;;5018307;28;20248;-82
2022/03/15 11:28:06;;;;;;;10.67;7.03;;;10.90;99.90;;;;;;5035635;28;20254;-82
2022/03/15 11:30:32;;;;;;;7.88;6.55;;;11.00;99.90;;;;;;5017253;28;20202;-82
2022/03/15 11:33:01;;;;;;;10.33;6.60;;;11.10;99.90;;;;;;5034053;28;20557;-81
2022/03/15 11:35:29;;;;;;;8.47;6.97;;;11.00;99.90;;;;;;5017898;28;20569;-81
2022/03/15 11:37:57;;;;;;;9.07;6.22;;;11.00;99.90;;;;;;5036165;28;20194;-81
2022/03/15 11:40:23;;;;;;;10.45;6.40;;;11.00;99.90;;;;;;5018319;28;20181;-81
2022/03/15 11:43:17;;;;;;;7.30;5.97;;;11.00;99.90;;;;;;5036729;28;20258;-81
2022/03/15 11:45:54;;;;;;;8.73;6.93;;;11.00;99.90;;;;;;5035810;28;20199;-82
2022/03/15 11:48:39;;;;;;;7.28;6.32;;;10.90;99.90;;;;;;5036632;28;20158;-81
2022/03/15 11:51:34;;;;;;;14.47;7.03;;;11.00;99.90;;;;;;5019490;28;20182;-81
2022/03/15 11:54:33;;;;;;;11.83;7.37;;;11.00;99.90;;;;;;5019937;28;20198;-82
2022/03/15 11:57:17;;;;;;;11.27;6.80;;;11.00;99.90;;;;;;5018803;28;20614;-82
2022/03/15 11:59:53;;;;;;;10.47;6.40;;;10.90;99.90;;;;;;5019953;28;20170;-82
2022/03/15 12:02:29;;;;;;;7.97;6.43;;;11.00;99.90;;;;;;5021812;28;20621;-83
2022/03/15 12:04:57;;;;;;;13.40;6.15;;;11.00;99.90;;;;;;5019918;28;20206;-83
2022/03/15 12:07:46;;;;;;;10.63;6.00;;;11.00;99.90;;;;;;5019071;28;20219;-84
2022/03/15 12:10:26;;;;;;;9.37;5.97;;;11.00;99.90;;;;;;5038296;28;20152;-84
2022/03/15 12:13:03;;;;;;;6.32;5.72;;;11.00;99.90;;;;;;5020566;28;20625;-84
2022/03/15 12:15:40;;;;;;;11.20;6.03;;;11.00;99.90;;;;;;5019258;28;20207;-84
2022/03/15 12:18:27;;;;;;;9.20;6.47;;;11.00;99.90;;;;;;5039546;28;20178;-84
2022/03/15 12:21:06;;;;;;;11.43;6.93;;;11.00;99.90;;;;;;5037973;28;20213;-84
2022/03/15 12:23:40;;;;;;;11.65;6.63;;;10.90;99.90;;;;;;5021618;28;20213;-84
2022/03/15 12:26:22;;;;;;;9.50;6.90;;;10.90;99.90;;;;;;5035841;28;20222;-83
2022/03/15 12:28:58;;;;;;;11.57;6.40;;;10.90;99.90;;;;;;5017524;28;20168;-84
2022/03/15 12:31:39;;;;;;;8.82;6.78;;;10.90;99.90;;;;;;5019942;28;20544;-84
2022/03/15 12:34:08;;;;;;;8.73;5.93;;;11.00;99.90;;;;;;5033388;28;20253;-84
2022/03/15 12:36:45;;;;;;;7.57;5.53;;;10.90;99.90;;;;;;5017030;28;20727;-84
2022/03/15 12:39:14;;;;;;;5.87;5.03;;;10.90;99.90;;;;;;5034306;28;20176;-84
2022/03/15 12:41:40;;;;;;;7.73;5.23;;;10.90;99.90;;;;;;5034407;28;20287;-84